Global Round — 3FBO4 — position and weather

sailwx.info

Track history (hours):
 
Tides and Currents Weather Stations Pressure Air Temp Water Temp Dewpoint Dewpoint Depression Visibility Wind Speed Wind Dir Waves Ship Positions

Global Round

Last reported at 2018-Apr-24 04:57 UTC. Time now 2018-Apr-24 05:07 UTC.
Position N 58°30' E 017°35'.

Length 178 m; draft 6.3 m.

Type: Cargo ship. MMSI: 351225000.

Date/timePositionNaut miles runAvg speedWind from/ knotsBaromVisibWave heightAir tempDewpointWater temp
2018-Apr-24 04:57N 58°30' E 017°35'4 9.5
2018-Apr-24 04:30N 58°26' E 017°36'11913.3
2018-Apr-23 19:33N 56°27' E 017°05'113.7
2018-Apr-23 19:29N 56°27' E 017°05'713.6
2018-Apr-23 19:00N 56°20' E 017°01'713.4
2018-Apr-23 18:30N 56°14' E 016°57'713.7
2018-Apr-23 18:00N 56°08' E 016°52'713.2
2018-Apr-23 17:30N 56°02' E 016°45'713.9
2018-Apr-23 17:00N 55°59' E 016°35'713.8
2018-Apr-23 16:30N 55°55' E 016°24'713.8
2018-Apr-23 16:01N 55°52' E 016°13'713.8
2018-Apr-23 15:30N 55°48' E 016°03'713.7
2018-Apr-23 15:00N 55°45' E 015°52'714.0
2018-Apr-23 14:30N 55°42' E 015°41'713.9
2018-Apr-23 14:00N 55°39' E 015°30'713.8
2018-Apr-23 13:31N 55°36' E 015°18'714.0
2018-Apr-23 13:00N 55°33' E 015°07'713.8
2018-Apr-23 12:30N 55°30' E 014°56'713.8
2018-Apr-23 12:00N 55°26' E 014°46'713.7
2018-Apr-23 11:30N 55°22' E 014°37'713.8
2018-Apr-23 11:00N 55°16' E 014°30'713.8
2018-Apr-23 10:30N 55°11' E 014°22'713.6
2018-Apr-23 10:00N 55°10' E 014°10'3613.7
2018-Apr-23 07:25N 55°13' E 013°08'613.6
2018-Apr-23 06:59N 55°14' E 012°58'713.4
2018-Apr-23 06:27N 55°16' E 012°46'612.7
2018-Apr-23 06:00N 55°18' E 012°37'612.4
2018-Apr-23 05:30N 55°24' E 012°39'612.1
2018-Apr-23 05:00N 55°30' E 012°42'4 8.2
2018-Apr-23 04:30N 55°34' E 012°42'4 8.7
2018-Apr-23 04:00N 55°38' E 012°41'510.0
2018-Apr-23 03:30N 55°43' E 012°41'611.7
2018-Apr-23 03:00N 55°49' E 012°42'612.0
2018-Apr-23 02:30N 55°55' E 012°38'612.0
2018-Apr-23 02:00N 56°01' E 012°38'5 9.4
2018-Apr-23 01:30N 56°05' E 012°34'510.1
2018-Apr-23 01:00N 56°08' E 012°27'4 8.0
2018-Apr-23 00:30N 56°11' E 012°22'711.3
2018-Apr-22 23:56N 56°14' E 012°12'2912.2
2018-Apr-22 21:33N 56°42' E 011°54'213.1
2018-Apr-22 21:23N 56°44' E 011°53'512.8
2018-Apr-22 21:00N 56°49' E 011°50'713.2
2018-Apr-22 20:30N 56°55' E 011°47'713.3
2018-Apr-22 20:00N 57°01' E 011°42'713.2
2018-Apr-22 19:30N 57°07' E 011°38'613.0
2018-Apr-22 19:00N 57°14' E 011°34'612.9
2018-Apr-22 18:30N 57°19' E 011°30'713.1
2018-Apr-22 18:00N 57°26' E 011°26'612.6
2018-Apr-22 17:30N 57°31' E 011°19'613.0
2018-Apr-22 17:00N 57°35' E 011°10'713.6
2018-Apr-22 16:31N 57°40' E 011°00'713.7
2018-Apr-22 16:00N 57°44' E 010°51'713.0
2018-Apr-22 15:30N 57°48' E 010°41'713.5
2018-Apr-22 15:01N 57°47' E 010°29'713.7
2018-Apr-22 14:30N 57°45' E 010°16'713.2
2018-Apr-22 14:01N 57°43' E 010°05'612.9
2018-Apr-22 13:30N 57°41' E 009°53'713.1
2018-Apr-22 13:00N 57°38' E 009°43'713.3
2018-Apr-22 12:29N 57°34' E 009°31'1013.3
2018-Apr-22 11:45N 57°30' E 009°15'513.4
2018-Apr-22 11:25N 57°27' E 009°08'913.7
2018-Apr-22 10:46N 57°23' E 008°54'28213.4
2018-Apr-21 13:43N 55°28' E 001°08'313.8
2018-Apr-21 13:29N 55°27' E 001°03'913.9
2018-Apr-21 12:50N 55°25' E 000°48'5813.8
2018-Apr-21 08:40N 55°11' W 000°51'213.7
2018-Apr-21 08:30N 55°10' W 000°55'713.8
2018-Apr-21 08:00N 55°09' W 001°06'713.8
2018-Apr-21 07:30N 55°07' W 001°18'612.4
2018-Apr-21 07:01N 55°06' W 001°28'2 4.7
2018-Apr-21 06:30N 55°08' W 001°31'0 0.4
2018-Apr-21 06:00N 55°08' W 001°31'0 0.0
2018-Apr-21 05:29N 55°08' W 001°31'0 0.0
2018-Apr-21 04:59N 55°08' W 001°31'0 0.0
2018-Apr-21 04:29N 55°08' W 001°31'0 0.0
2018-Apr-21 03:59N 55°08' W 001°31'0 0.0
2018-Apr-21 03:29N 55°08' W 001°31'0 0.0
2018-Apr-21 02:59N 55°08' W 001°31'0 0.0
2018-Apr-21 02:29N 55°08' W 001°31'0 0.0
2018-Apr-21 01:59N 55°08' W 001°31'0 0.0
2018-Apr-21 01:29N 55°08' W 001°31'0 0.0
2018-Apr-21 00:59N 55°08' W 001°31'0 0.0
2018-Apr-21 00:29N 55°08' W 001°31'0 0.0
2018-Apr-20 23:59N 55°08' W 001°31'0 0.0
2018-Apr-20 23:29N 55°08' W 001°31'0 0.0
2018-Apr-20 22:59N 55°08' W 001°31'0 0.0
2018-Apr-20 22:29N 55°08' W 001°31'0 0.0
2018-Apr-20 21:59N 55°08' W 001°31'0 0.0
2018-Apr-20 21:29N 55°08' W 001°31'0 0.0
2018-Apr-20 20:59N 55°08' W 001°31'0 0.0
2018-Apr-20 20:29N 55°08' W 001°31'0 0.0
2018-Apr-20 19:59N 55°08' W 001°31'0 0.0
2018-Apr-20 19:29N 55°08' W 001°31'0 0.0
2018-Apr-20 18:59N 55°08' W 001°31'0 0.0
2018-Apr-20 18:29N 55°08' W 001°31'0 0.0
2018-Apr-20 17:59N 55°08' W 001°31'0 0.0
2018-Apr-20 17:29N 55°08' W 001°31'0 0.0
2018-Apr-20 16:59N 55°08' W 001°31'0 0.0
2018-Apr-20 16:29N 55°08' W 001°31'0 0.0
2018-Apr-20 15:59N 55°08' W 001°31'0 0.0
2018-Apr-20 15:29N 55°08' W 001°31'0 0.0
2018-Apr-20 14:59N 55°08' W 001°31'0 0.0
2018-Apr-20 14:29N 55°08' W 001°31'0 0.0
2018-Apr-20 13:59N 55°08' W 001°31'0 0.0
2018-Apr-20 13:29N 55°08' W 001°31'0 0.0
2018-Apr-20 12:59N 55°08' W 001°31'0 0.0
2018-Apr-20 12:29N 55°08' W 001°31'0 0.0
2018-Apr-20 11:59N 55°08' W 001°31'0 0.0
2018-Apr-20 11:29N 55°08' W 001°31'0 0.0
2018-Apr-20 10:59N 55°08' W 001°31'0 0.0
2018-Apr-20 10:29N 55°08' W 001°31'0 0.0
2018-Apr-20 09:59N 55°08' W 001°31'0 0.0
2018-Apr-20 09:29N 55°08' W 001°31'0 0.0
2018-Apr-20 08:59N 55°08' W 001°31'0 0.0
2018-Apr-20 08:29N 55°08' W 001°31'0 0.0
2018-Apr-20 07:59N 55°08' W 001°31'0 0.0
2018-Apr-20 07:29N 55°08' W 001°31'0 0.0
2018-Apr-20 06:59N 55°08' W 001°31'0 0.0
2018-Apr-20 06:29N 55°08' W 001°31'0 0.0
2018-Apr-20 05:59N 55°08' W 001°31'0 0.0
2018-Apr-20 05:29N 55°08' W 001°31'0 0.0
2018-Apr-20 04:59N 55°08' W 001°31'0 0.0
2018-Apr-20 04:29N 55°08' W 001°31'0 0.0
2018-Apr-20 03:59N 55°08' W 001°31'0 0.0
2018-Apr-20 03:29N 55°08' W 001°31'0 0.0
2018-Apr-20 02:59N 55°08' W 001°31'0 0.0
2018-Apr-20 02:29N 55°08' W 001°31'0 0.0
2018-Apr-20 01:59N 55°08' W 001°31'0 0.0
2018-Apr-20 01:29N 55°08' W 001°31'0 0.0
2018-Apr-20 00:59N 55°08' W 001°31'0 0.0
2018-Apr-20 00:29N 55°08' W 001°31'0 0.0
2018-Apr-19 23:59N 55°08' W 001°31'0 0.0
2018-Apr-19 23:29N 55°08' W 001°31'0 0.0
2018-Apr-19 22:59N 55°08' W 001°31'0 0.0
2018-Apr-19 22:29N 55°08' W 001°31'0 0.0
2018-Apr-19 21:59N 55°08' W 001°31'0 0.0
2018-Apr-19 21:29N 55°08' W 001°31'0 0.0
2018-Apr-19 20:59N 55°08' W 001°31'0 0.0
2018-Apr-19 20:29N 55°08' W 001°31'0 0.0
2018-Apr-19 19:59N 55°08' W 001°31'0 0.0
2018-Apr-19 19:29N 55°08' W 001°31'0 0.0
2018-Apr-19 18:59N 55°08' W 001°31'0 0.0
2018-Apr-19 18:29N 55°08' W 001°31'0 0.0
2018-Apr-19 17:59N 55°08' W 001°31'0 0.0
2018-Apr-19 17:29N 55°08' W 001°31'0 0.0
2018-Apr-19 16:59N 55°08' W 001°31'0 0.0
2018-Apr-19 16:29N 55°08' W 001°31'0 0.0
2018-Apr-19 15:59N 55°08' W 001°31'0 0.0
2018-Apr-19 15:29N 55°08' W 001°31'0 0.0
2018-Apr-19 14:59N 55°08' W 001°31'0 0.0
2018-Apr-19 14:29N 55°08' W 001°31'0 0.0
2018-Apr-19 13:59N 55°08' W 001°31'0 0.0
2018-Apr-19 13:29N 55°08' W 001°31'0 0.0
2018-Apr-19 12:59N 55°08' W 001°31'0 0.0
2018-Apr-19 12:29N 55°08' W 001°31'0 0.0
2018-Apr-19 11:59N 55°08' W 001°31'0 0.0
2018-Apr-19 11:29N 55°08' W 001°31'0 0.0
2018-Apr-19 10:59N 55°08' W 001°31'0 0.0
2018-Apr-19 10:29N 55°08' W 001°31'0 0.0
2018-Apr-19 09:59N 55°08' W 001°31'0 0.0
2018-Apr-19 09:29N 55°08' W 001°31'0 0.0
2018-Apr-19 08:59N 55°08' W 001°31'0 0.0
2018-Apr-19 08:29N 55°08' W 001°31'0 0.0
2018-Apr-19 07:59N 55°08' W 001°31'0 0.0
2018-Apr-19 07:29N 55°08' W 001°31'0 0.0
2018-Apr-19 06:59N 55°08' W 001°31'0 0.0
2018-Apr-19 06:29N 55°08' W 001°31'0 0.0
2018-Apr-19 05:59N 55°08' W 001°31'0 0.0
2018-Apr-19 05:29N 55°08' W 001°31'0 0.0
2018-Apr-19 04:59N 55°08' W 001°31'0 0.0
2018-Apr-19 04:29N 55°08' W 001°31'0 0.0
2018-Apr-19 03:59N 55°08' W 001°31'0 0.0
2018-Apr-19 03:29N 55°08' W 001°31'0 0.0
2018-Apr-19 02:56N 55°08' W 001°31'0 0.0
2018-Apr-19 02:29N 55°08' W 001°31'0 0.0
2018-Apr-19 01:59N 55°08' W 001°31'0 0.0
2018-Apr-19 01:29N 55°08' W 001°31'0 0.0
2018-Apr-19 00:59N 55°08' W 001°31'0 0.0
2018-Apr-19 00:29N 55°08' W 001°31'0 0.0
2018-Apr-18 23:59N 55°08' W 001°31'0 0.0
2018-Apr-18 23:29N 55°08' W 001°31'0 0.0
2018-Apr-18 22:59N 55°08' W 001°31'0 0.0
2018-Apr-18 22:29N 55°08' W 001°31'0 0.0
2018-Apr-18 21:59N 55°08' W 001°31'0 0.0
2018-Apr-18 21:29N 55°08' W 001°31'0 0.0
2018-Apr-18 20:59N 55°08' W 001°31'0 0.0
2018-Apr-18 20:29N 55°08' W 001°31'0 0.0
2018-Apr-18 19:59N 55°08' W 001°31'0 0.0
2018-Apr-18 19:29N 55°08' W 001°31'0 0.0
2018-Apr-18 18:59N 55°08' W 001°31'0 0.0
2018-Apr-18 18:29N 55°08' W 001°31'0 0.0
2018-Apr-18 17:59N 55°08' W 001°31'0 0.0
2018-Apr-18 17:29N 55°08' W 001°31'0 0.0
2018-Apr-18 16:59N 55°08' W 001°31'0 0.0
2018-Apr-18 16:29N 55°08' W 001°31'0 0.0
2018-Apr-18 15:59N 55°08' W 001°31'0 0.0
2018-Apr-18 15:29N 55°08' W 001°31'0 0.0
2018-Apr-18 14:56N 55°08' W 001°31'0 0.0
2018-Apr-18 14:29N 55°08' W 001°31'0 0.0
2018-Apr-18 13:59N 55°08' W 001°31'0 0.0
2018-Apr-18 13:29N 55°08' W 001°31'0 0.0
2018-Apr-18 12:59N 55°08' W 001°31'0 0.0
2018-Apr-18 12:29N 55°08' W 001°31'0 0.0
2018-Apr-18 11:59N 55°08' W 001°31'0 0.0
2018-Apr-18 11:26N 55°08' W 001°31'0 0.0
2018-Apr-18 10:59N 55°08' W 001°31'0 0.0
2018-Apr-18 10:29N 55°08' W 001°31'0 0.0
2018-Apr-18 09:59N 55°08' W 001°31'0 0.0
2018-Apr-18 09:29N 55°08' W 001°31'0 0.0
2018-Apr-18 08:56N 55°08' W 001°31'0 0.0
2018-Apr-18 08:29N 55°08' W 001°31'0 0.0
2018-Apr-18 07:59N 55°08' W 001°31'0 0.0
2018-Apr-18 07:29N 55°08' W 001°31'0 0.0
2018-Apr-18 06:59N 55°08' W 001°31'0 0.0
2018-Apr-18 06:29N 55°08' W 001°31'0 0.0
2018-Apr-18 05:59N 55°08' W 001°31'0 0.0
2018-Apr-18 05:29N 55°08' W 001°31'0 0.0
2018-Apr-18 04:59N 55°08' W 001°31'0 0.0
2018-Apr-18 04:29N 55°08' W 001°31'0 0.0
2018-Apr-18 03:59N 55°08' W 001°31'0 0.0
2018-Apr-18 03:29N 55°08' W 001°31'0 0.0
2018-Apr-18 02:59N 55°08' W 001°31'0 0.0
2018-Apr-18 02:29N 55°08' W 001°31'0 0.0
2018-Apr-18 01:59N 55°08' W 001°31'0 0.0
2018-Apr-18 01:29N 55°08' W 001°31'0 0.0
2018-Apr-18 00:59N 55°08' W 001°31'0 0.0
2018-Apr-18 00:29N 55°08' W 001°31'0 0.0
2018-Apr-17 23:59N 55°08' W 001°31'0 0.0
2018-Apr-17 23:29N 55°08' W 001°31'0 0.0
2018-Apr-17 22:59N 55°08' W 001°31'0 0.0
2018-Apr-17 22:29N 55°08' W 001°31'0 0.0
2018-Apr-17 21:59N 55°08' W 001°31'0 0.0
2018-Apr-17 21:29N 55°08' W 001°31'0 0.0
2018-Apr-17 20:59N 55°08' W 001°31'0 0.0
2018-Apr-17 20:29N 55°08' W 001°31'0 0.0
2018-Apr-17 19:59N 55°08' W 001°31'0 0.0
2018-Apr-17 19:29N 55°08' W 001°31'0 0.0
2018-Apr-17 18:59N 55°08' W 001°31'0 0.0
2018-Apr-17 18:26N 55°08' W 001°31'0 0.0
2018-Apr-17 17:59N 55°08' W 001°31'0 0.0
2018-Apr-17 17:29N 55°08' W 001°31'0 0.0
2018-Apr-17 16:59N 55°08' W 001°31'0 0.0
2018-Apr-17 16:29N 55°08' W 001°31'0 0.0
2018-Apr-17 15:59N 55°08' W 001°31'0 0.0
2018-Apr-17 15:29N 55°08' W 001°31'0 0.0
2018-Apr-17 14:59N 55°08' W 001°31'0 0.0
2018-Apr-17 14:29N 55°08' W 001°31'0 0.0
2018-Apr-17 13:59N 55°08' W 001°31'0 0.0
2018-Apr-17 13:29N 55°08' W 001°31'0 0.0
2018-Apr-17 12:59N 55°08' W 001°31'0 0.0
2018-Apr-17 12:29N 55°08' W 001°31'0 0.0
2018-Apr-17 11:59N 55°08' W 001°31'0 0.0
2018-Apr-17 11:29N 55°08' W 001°31'0 0.0
2018-Apr-17 10:59N 55°08' W 001°31'0 0.0
2018-Apr-17 10:29N 55°08' W 001°31'0 0.0
2018-Apr-17 09:59N 55°08' W 001°31'0 0.0
2018-Apr-17 09:29N 55°08' W 001°31'0 0.0
2018-Apr-17 08:59N 55°08' W 001°31'0 0.0
2018-Apr-17 08:29N 55°08' W 001°31'0 0.0
2018-Apr-17 07:59N 55°08' W 001°31'0 0.0
2018-Apr-17 07:29N 55°08' W 001°31'0 0.0
2018-Apr-17 06:59N 55°08' W 001°31'0 0.0
2018-Apr-17 06:29N 55°08' W 001°31'0 0.0
2018-Apr-17 05:59N 55°08' W 001°31'0 0.0
2018-Apr-17 05:29N 55°08' W 001°31'0 0.0
2018-Apr-17 04:59N 55°08' W 001°31'0 0.0
2018-Apr-17 04:29N 55°08' W 001°31'0 0.0
2018-Apr-17 03:59N 55°08' W 001°31'0 0.0
2018-Apr-17 03:29N 55°08' W 001°31'0 0.0
2018-Apr-17 02:59N 55°08' W 001°31'0 0.0
2018-Apr-17 02:29N 55°08' W 001°31'0 0.0
2018-Apr-17 01:59N 55°08' W 001°31'0 0.0
2018-Apr-17 01:29N 55°08' W 001°31'0 0.0
2018-Apr-17 00:59N 55°08' W 001°31'0 0.0
2018-Apr-17 00:29N 55°08' W 001°31'0 0.0
2018-Apr-16 23:59N 55°08' W 001°31'0 0.0
2018-Apr-16 23:29N 55°08' W 001°31'0 0.0
2018-Apr-16 22:59N 55°08' W 001°31'0 0.0
2018-Apr-16 22:29N 55°08' W 001°31'0 0.0
2018-Apr-16 21:59N 55°08' W 001°31'0 0.0
2018-Apr-16 21:29N 55°08' W 001°31'0 0.0
2018-Apr-16 20:59N 55°08' W 001°31'0 0.0
2018-Apr-16 20:29N 55°08' W 001°31'0 0.0
2018-Apr-16 19:59N 55°08' W 001°31'0 0.0
2018-Apr-16 19:29N 55°08' W 001°31'0 0.0
2018-Apr-16 18:59N 55°08' W 001°31'0 0.0
2018-Apr-16 18:29N 55°08' W 001°31'0 0.0
2018-Apr-16 17:59N 55°08' W 001°31'0 0.0
2018-Apr-16 17:29N 55°08' W 001°31'0 0.0
2018-Apr-16 16:59N 55°08' W 001°31'0 0.0
2018-Apr-16 16:29N 55°08' W 001°31'0 0.0
2018-Apr-16 15:59N 55°08' W 001°31'0 0.0
2018-Apr-16 15:29N 55°08' W 001°31'0 0.0
2018-Apr-16 14:59N 55°08' W 001°31'0 0.0
2018-Apr-16 14:29N 55°08' W 001°31'0 0.0
2018-Apr-16 13:59N 55°08' W 001°31'0 0.0
2018-Apr-16 13:29N 55°08' W 001°31'0 0.0
2018-Apr-16 12:59N 55°08' W 001°31'0 0.0
2018-Apr-16 12:29N 55°08' W 001°31'0 0.0
2018-Apr-16 11:59N 55°08' W 001°31'0 0.0
2018-Apr-16 11:29N 55°08' W 001°31'0 0.0
2018-Apr-16 10:59N 55°08' W 001°31'0 0.0
2018-Apr-16 10:29N 55°08' W 001°31'0 0.0
2018-Apr-16 09:59N 55°08' W 001°31'0 0.0
2018-Apr-16 09:29N 55°08' W 001°31'0 0.0
2018-Apr-16 08:59N 55°08' W 001°31'0 0.0
2018-Apr-16 08:29N 55°08' W 001°31'0 0.0
2018-Apr-16 07:59N 55°08' W 001°31'0 0.0
2018-Apr-16 07:29N 55°08' W 001°31'0 0.0
2018-Apr-16 06:59N 55°08' W 001°31'0 0.0
2018-Apr-16 06:29N 55°08' W 001°31'0 0.0
2018-Apr-16 05:59N 55°08' W 001°31'0 0.0
2018-Apr-16 05:29N 55°08' W 001°31'0 0.0
2018-Apr-16 04:59N 55°08' W 001°31'0 0.0
2018-Apr-16 04:29N 55°08' W 001°31'0 0.0
2018-Apr-16 03:59N 55°08' W 001°31'0 0.0
2018-Apr-16 03:29N 55°08' W 001°31'0 0.0
2018-Apr-16 02:59N 55°08' W 001°31'0 0.0
2018-Apr-16 02:29N 55°08' W 001°31'0 0.0
2018-Apr-16 01:56N 55°08' W 001°31'0 0.0
2018-Apr-16 01:29N 55°08' W 001°31'0 0.0
2018-Apr-16 00:59N 55°08' W 001°31'0 0.0
2018-Apr-16 00:29N 55°08' W 001°31'0 0.0
2018-Apr-15 23:59N 55°08' W 001°31'0 0.0
2018-Apr-15 23:29N 55°08' W 001°31'0 0.0
2018-Apr-15 22:59N 55°08' W 001°31'0 0.0
2018-Apr-15 22:29N 55°08' W 001°31'0 0.0
2018-Apr-15 21:59N 55°08' W 001°31'0 0.0
2018-Apr-15 21:29N 55°08' W 001°31'0 0.0
2018-Apr-15 20:59N 55°08' W 001°31'0 0.0
2018-Apr-15 20:29N 55°08' W 001°31'0 0.0
2018-Apr-15 19:59N 55°08' W 001°31'0 0.0
2018-Apr-15 19:29N 55°08' W 001°31'0 0.0
2018-Apr-15 18:59N 55°08' W 001°31'0 0.0
2018-Apr-15 18:29N 55°08' W 001°31'0 0.0
2018-Apr-15 17:59N 55°08' W 001°31'0 0.0
2018-Apr-15 17:29N 55°08' W 001°31'0 0.0
2018-Apr-15 16:56N 55°08' W 001°31'0 0.0
2018-Apr-15 16:29N 55°08' W 001°31'0 0.0
2018-Apr-15 15:59N 55°08' W 001°31'0 0.0
2018-Apr-15 15:29N 55°08' W 001°31'0 0.0
2018-Apr-15 14:59N 55°08' W 001°31'0 0.0
2018-Apr-15 14:29N 55°08' W 001°31'0 0.0
2018-Apr-15 13:59N 55°08' W 001°31'0 0.0
2018-Apr-15 13:29N 55°08' W 001°31'0 0.0
2018-Apr-15 12:59N 55°08' W 001°31'0 0.0
2018-Apr-15 12:29N 55°08' W 001°31'0 0.0
2018-Apr-15 11:59N 55°08' W 001°31'0 0.0
2018-Apr-15 11:29N 55°08' W 001°31'0 0.0
2018-Apr-15 10:59N 55°08' W 001°31'0 0.0
2018-Apr-15 10:29N 55°08' W 001°31'0 0.0
2018-Apr-15 09:59N 55°08' W 001°31'0 0.0
2018-Apr-15 09:29N 55°08' W 001°31'0 0.0
2018-Apr-15 08:59N 55°08' W 001°31'0 0.0
2018-Apr-15 08:29N 55°08' W 001°31'0 0.0
2018-Apr-15 07:59N 55°08' W 001°31'0 0.0
2018-Apr-15 07:29N 55°08' W 001°31'0 0.0
2018-Apr-15 06:59N 55°08' W 001°31'0 0.0
2018-Apr-15 06:29N 55°08' W 001°31'0 0.0
2018-Apr-15 05:59N 55°08' W 001°31'0 0.0
2018-Apr-15 05:29N 55°08' W 001°31'0 0.0
2018-Apr-15 04:59N 55°08' W 001°31'0 0.0
2018-Apr-15 04:29N 55°08' W 001°31'0 0.0
2018-Apr-15 03:59N 55°08' W 001°31'0 0.0
2018-Apr-15 03:29N 55°08' W 001°31'0 0.0
2018-Apr-15 02:59N 55°08' W 001°31'0 0.0
2018-Apr-15 02:29N 55°08' W 001°31'0 0.0
2018-Apr-15 01:59N 55°08' W 001°31'0 0.0
2018-Apr-15 01:29N 55°08' W 001°31'0 0.0
2018-Apr-15 00:59N 55°08' W 001°31'0 0.0
2018-Apr-15 00:26N 55°08' W 001°31'0 0.0
2018-Apr-14 23:56N 55°08' W 001°31'0 0.0
2018-Apr-14 23:29N 55°08' W 001°31'0 0.0
2018-Apr-14 22:59N 55°08' W 001°31'0 0.0
2018-Apr-14 22:29N 55°08' W 001°31'0 0.0
2018-Apr-14 21:59N 55°08' W 001°31'0 0.0
2018-Apr-14 21:29N 55°08' W 001°31'0 0.0
2018-Apr-14 20:59N 55°08' W 001°31'0 0.0
2018-Apr-14 20:29N 55°08' W 001°31'0 0.0
2018-Apr-14 19:59N 55°08' W 001°31'0 0.0
2018-Apr-14 19:29N 55°08' W 001°31'0 0.0
2018-Apr-14 18:59N 55°08' W 001°31'0 0.0
2018-Apr-14 18:29N 55°08' W 001°31'0 0.0
2018-Apr-14 17:59N 55°08' W 001°31'0 0.0
2018-Apr-14 17:29N 55°08' W 001°31'0 0.0
2018-Apr-14 16:59N 55°08' W 001°31'0 0.0
2018-Apr-14 16:29N 55°08' W 001°31'0 0.0
2018-Apr-14 15:59N 55°08' W 001°31'0 0.0
2018-Apr-14 15:29N 55°08' W 001°31'0 0.0
2018-Apr-14 14:59N 55°08' W 001°31'0 0.0
2018-Apr-14 14:29N 55°08' W 001°31'0 0.0
2018-Apr-14 13:59N 55°08' W 001°31'0 0.0
2018-Apr-14 13:29N 55°08' W 001°31'0 0.0
2018-Apr-14 12:59N 55°08' W 001°31'0 0.0
2018-Apr-14 12:29N 55°08' W 001°31'0 0.0
2018-Apr-14 11:59N 55°08' W 001°31'0 0.0
2018-Apr-14 11:29N 55°08' W 001°31'0 0.0
2018-Apr-14 10:59N 55°08' W 001°31'0 0.0
2018-Apr-14 10:29N 55°08' W 001°31'0 0.0
2018-Apr-14 09:59N 55°08' W 001°31'0 0.0
2018-Apr-14 09:29N 55°08' W 001°31'0 0.0
2018-Apr-14 08:59N 55°08' W 001°31'0 0.0
2018-Apr-14 08:29N 55°08' W 001°31'0 0.0
2018-Apr-14 07:59N 55°08' W 001°31'0 0.0
2018-Apr-14 07:29N 55°08' W 001°31'0 0.0
2018-Apr-14 06:59N 55°08' W 001°31'0 0.0
2018-Apr-14 06:29N 55°08' W 001°31'0 0.0
2018-Apr-14 05:59N 55°08' W 001°31'0 0.0
2018-Apr-14 05:29N 55°08' W 001°31'0 0.0
2018-Apr-14 04:59N 55°08' W 001°31'  
Track history (hours):
 
Tides and Currents Weather Stations Pressure Air Temp Water Temp Dewpoint Dewpoint Depression Visibility Wind Speed Wind Dir Waves Ship Positions

Global Round

Last reported at 2018-Apr-24 04:57 UTC. Time now 2018-Apr-24 05:07 UTC.
Position N 58°30' E 017°35'.

Length 178 m; draft 6.3 m.

Type: Cargo ship. MMSI: 351225000.

Date/timePositionNaut miles runAvg speedWind from/ knotsBaromVisibWave heightAir tempDewpointWater temp
2018-Apr-24 04:57N 58°30' E 017°35'4 9.5
2018-Apr-24 04:30N 58°26' E 017°36'11913.3
2018-Apr-23 19:33N 56°27' E 017°05'113.7
2018-Apr-23 19:29N 56°27' E 017°05'713.6
2018-Apr-23 19:00N 56°20' E 017°01'713.4
2018-Apr-23 18:30N 56°14' E 016°57'713.7
2018-Apr-23 18:00N 56°08' E 016°52'713.2
2018-Apr-23 17:30N 56°02' E 016°45'713.9
2018-Apr-23 17:00N 55°59' E 016°35'713.8
2018-Apr-23 16:30N 55°55' E 016°24'713.8
2018-Apr-23 16:01N 55°52' E 016°13'713.8
2018-Apr-23 15:30N 55°48' E 016°03'713.7
2018-Apr-23 15:00N 55°45' E 015°52'714.0
2018-Apr-23 14:30N 55°42' E 015°41'713.9
2018-Apr-23 14:00N 55°39' E 015°30'713.8
2018-Apr-23 13:31N 55°36' E 015°18'714.0
2018-Apr-23 13:00N 55°33' E 015°07'713.8
2018-Apr-23 12:30N 55°30' E 014°56'713.8
2018-Apr-23 12:00N 55°26' E 014°46'713.7
2018-Apr-23 11:30N 55°22' E 014°37'713.8
2018-Apr-23 11:00N 55°16' E 014°30'713.8
2018-Apr-23 10:30N 55°11' E 014°22'713.6
2018-Apr-23 10:00N 55°10' E 014°10'3613.7
2018-Apr-23 07:25N 55°13' E 013°08'613.6
2018-Apr-23 06:59N 55°14' E 012°58'713.4
2018-Apr-23 06:27N 55°16' E 012°46'612.7
2018-Apr-23 06:00N 55°18' E 012°37'612.4
2018-Apr-23 05:30N 55°24' E 012°39'612.1
2018-Apr-23 05:00N 55°30' E 012°42'4 8.2
2018-Apr-23 04:30N 55°34' E 012°42'4 8.7
2018-Apr-23 04:00N 55°38' E 012°41'510.0
2018-Apr-23 03:30N 55°43' E 012°41'611.7
2018-Apr-23 03:00N 55°49' E 012°42'612.0
2018-Apr-23 02:30N 55°55' E 012°38'612.0
2018-Apr-23 02:00N 56°01' E 012°38'5 9.4
2018-Apr-23 01:30N 56°05' E 012°34'510.1
2018-Apr-23 01:00N 56°08' E 012°27'4 8.0
2018-Apr-23 00:30N 56°11' E 012°22'711.3
2018-Apr-22 23:56N 56°14' E 012°12'2912.2
2018-Apr-22 21:33N 56°42' E 011°54'213.1
2018-Apr-22 21:23N 56°44' E 011°53'512.8
2018-Apr-22 21:00N 56°49' E 011°50'713.2
2018-Apr-22 20:30N 56°55' E 011°47'713.3
2018-Apr-22 20:00N 57°01' E 011°42'713.2
2018-Apr-22 19:30N 57°07' E 011°38'613.0
2018-Apr-22 19:00N 57°14' E 011°34'612.9
2018-Apr-22 18:30N 57°19' E 011°30'713.1
2018-Apr-22 18:00N 57°26' E 011°26'612.6
2018-Apr-22 17:30N 57°31' E 011°19'613.0
2018-Apr-22 17:00N 57°35' E 011°10'713.6
2018-Apr-22 16:31N 57°40' E 011°00'713.7
2018-Apr-22 16:00N 57°44' E 010°51'713.0
2018-Apr-22 15:30N 57°48' E 010°41'713.5
2018-Apr-22 15:01N 57°47' E 010°29'713.7
2018-Apr-22 14:30N 57°45' E 010°16'713.2
2018-Apr-22 14:01N 57°43' E 010°05'612.9
2018-Apr-22 13:30N 57°41' E 009°53'713.1
2018-Apr-22 13:00N 57°38' E 009°43'713.3
2018-Apr-22 12:29N 57°34' E 009°31'1013.3
2018-Apr-22 11:45N 57°30' E 009°15'513.4
2018-Apr-22 11:25N 57°27' E 009°08'913.7
2018-Apr-22 10:46N 57°23' E 008°54'28213.4
2018-Apr-21 13:43N 55°28' E 001°08'313.8
2018-Apr-21 13:29N 55°27' E 001°03'913.9
2018-Apr-21 12:50N 55°25' E 000°48'5813.8
2018-Apr-21 08:40N 55°11' W 000°51'213.7
2018-Apr-21 08:30N 55°10' W 000°55'713.8
2018-Apr-21 08:00N 55°09' W 001°06'713.8
2018-Apr-21 07:30N 55°07' W 001°18'612.4
2018-Apr-21 07:01N 55°06' W 001°28'2 4.7
2018-Apr-21 06:30N 55°08' W 001°31'0 0.4
2018-Apr-21 06:00N 55°08' W 001°31'0 0.0
2018-Apr-21 05:29N 55°08' W 001°31'0 0.0
2018-Apr-21 04:59N 55°08' W 001°31'0 0.0
2018-Apr-21 04:29N 55°08' W 001°31'0 0.0
2018-Apr-21 03:59N 55°08' W 001°31'0 0.0
2018-Apr-21 03:29N 55°08' W 001°31'0 0.0
2018-Apr-21 02:59N 55°08' W 001°31'0 0.0
2018-Apr-21 02:29N 55°08' W 001°31'0 0.0
2018-Apr-21 01:59N 55°08' W 001°31'0 0.0
2018-Apr-21 01:29N 55°08' W 001°31'0 0.0
2018-Apr-21 00:59N 55°08' W 001°31'0 0.0
2018-Apr-21 00:29N 55°08' W 001°31'0 0.0
2018-Apr-20 23:59N 55°08' W 001°31'0 0.0
2018-Apr-20 23:29N 55°08' W 001°31'0 0.0
2018-Apr-20 22:59N 55°08' W 001°31'0 0.0
2018-Apr-20 22:29N 55°08' W 001°31'0 0.0
2018-Apr-20 21:59N 55°08' W 001°31'0 0.0
2018-Apr-20 21:29N 55°08' W 001°31'0 0.0
2018-Apr-20 20:59N 55°08' W 001°31'0 0.0
2018-Apr-20 20:29N 55°08' W 001°31'0 0.0
2018-Apr-20 19:59N 55°08' W 001°31'0 0.0
2018-Apr-20 19:29N 55°08' W 001°31'0 0.0
2018-Apr-20 18:59N 55°08' W 001°31'0 0.0
2018-Apr-20 18:29N 55°08' W 001°31'0 0.0
2018-Apr-20 17:59N 55°08' W 001°31'0 0.0
2018-Apr-20 17:29N 55°08' W 001°31'0 0.0
2018-Apr-20 16:59N 55°08' W 001°31'0 0.0
2018-Apr-20 16:29N 55°08' W 001°31'0 0.0
2018-Apr-20 15:59N 55°08' W 001°31'0 0.0
2018-Apr-20 15:29N 55°08' W 001°31'0 0.0
2018-Apr-20 14:59N 55°08' W 001°31'0 0.0
2018-Apr-20 14:29N 55°08' W 001°31'0 0.0
2018-Apr-20 13:59N 55°08' W 001°31'0 0.0
2018-Apr-20 13:29N 55°08' W 001°31'0 0.0
2018-Apr-20 12:59N 55°08' W 001°31'0 0.0
2018-Apr-20 12:29N 55°08' W 001°31'0 0.0
2018-Apr-20 11:59N 55°08' W 001°31'0 0.0
2018-Apr-20 11:29N 55°08' W 001°31'0 0.0
2018-Apr-20 10:59N 55°08' W 001°31'0 0.0
2018-Apr-20 10:29N 55°08' W 001°31'0 0.0
2018-Apr-20 09:59N 55°08' W 001°31'0 0.0
2018-Apr-20 09:29N 55°08' W 001°31'0 0.0
2018-Apr-20 08:59N 55°08' W 001°31'0 0.0
2018-Apr-20 08:29N 55°08' W 001°31'0 0.0
2018-Apr-20 07:59N 55°08' W 001°31'0 0.0
2018-Apr-20 07:29N 55°08' W 001°31'0 0.0
2018-Apr-20 06:59N 55°08' W 001°31'0 0.0
2018-Apr-20 06:29N 55°08' W 001°31'0 0.0
2018-Apr-20 05:59N 55°08' W 001°31'0 0.0
2018-Apr-20 05:29N 55°08' W 001°31'0 0.0
2018-Apr-20 04:59N 55°08' W 001°31'0 0.0
2018-Apr-20 04:29N 55°08' W 001°31'0 0.0
2018-Apr-20 03:59N 55°08' W 001°31'0 0.0
2018-Apr-20 03:29N 55°08' W 001°31'0 0.0
2018-Apr-20 02:59N 55°08' W 001°31'0 0.0
2018-Apr-20 02:29N 55°08' W 001°31'0 0.0
2018-Apr-20 01:59N 55°08' W 001°31'0 0.0
2018-Apr-20 01:29N 55°08' W 001°31'0 0.0
2018-Apr-20 00:59N 55°08' W 001°31'0 0.0
2018-Apr-20 00:29N 55°08' W 001°31'0 0.0
2018-Apr-19 23:59N 55°08' W 001°31'0 0.0
2018-Apr-19 23:29N 55°08' W 001°31'0 0.0
2018-Apr-19 22:59N 55°08' W 001°31'0 0.0
2018-Apr-19 22:29N 55°08' W 001°31'0 0.0
2018-Apr-19 21:59N 55°08' W 001°31'0 0.0
2018-Apr-19 21:29N 55°08' W 001°31'0 0.0
2018-Apr-19 20:59N 55°08' W 001°31'0 0.0
2018-Apr-19 20:29N 55°08' W 001°31'0 0.0
2018-Apr-19 19:59N 55°08' W 001°31'0 0.0
2018-Apr-19 19:29N 55°08' W 001°31'0 0.0
2018-Apr-19 18:59N 55°08' W 001°31'0 0.0
2018-Apr-19 18:29N 55°08' W 001°31'0 0.0
2018-Apr-19 17:59N 55°08' W 001°31'0 0.0
2018-Apr-19 17:29N 55°08' W 001°31'0 0.0
2018-Apr-19 16:59N 55°08' W 001°31'0 0.0
2018-Apr-19 16:29N 55°08' W 001°31'0 0.0
2018-Apr-19 15:59N 55°08' W 001°31'0 0.0
2018-Apr-19 15:29N 55°08' W 001°31'0 0.0
2018-Apr-19 14:59N 55°08' W 001°31'0 0.0
2018-Apr-19 14:29N 55°08' W 001°31'0 0.0
2018-Apr-19 13:59N 55°08' W 001°31'0 0.0
2018-Apr-19 13:29N 55°08' W 001°31'0 0.0
2018-Apr-19 12:59N 55°08' W 001°31'0 0.0
2018-Apr-19 12:29N 55°08' W 001°31'0 0.0
2018-Apr-19 11:59N 55°08' W 001°31'0 0.0
2018-Apr-19 11:29N 55°08' W 001°31'0 0.0
2018-Apr-19 10:59N 55°08' W 001°31'0 0.0
2018-Apr-19 10:29N 55°08' W 001°31'0 0.0
2018-Apr-19 09:59N 55°08' W 001°31'0 0.0
2018-Apr-19 09:29N 55°08' W 001°31'0 0.0
2018-Apr-19 08:59N 55°08' W 001°31'0 0.0
2018-Apr-19 08:29N 55°08' W 001°31'0 0.0
2018-Apr-19 07:59N 55°08' W 001°31'0 0.0
2018-Apr-19 07:29N 55°08' W 001°31'0 0.0
2018-Apr-19 06:59N 55°08' W 001°31'0 0.0
2018-Apr-19 06:29N 55°08' W 001°31'0 0.0
2018-Apr-19 05:59N 55°08' W 001°31'0 0.0
2018-Apr-19 05:29N 55°08' W 001°31'0 0.0
2018-Apr-19 04:59N 55°08' W 001°31'0 0.0
2018-Apr-19 04:29N 55°08' W 001°31'0 0.0
2018-Apr-19 03:59N 55°08' W 001°31'0 0.0
2018-Apr-19 03:29N 55°08' W 001°31'0 0.0
2018-Apr-19 02:56N 55°08' W 001°31'0 0.0
2018-Apr-19 02:29N 55°08' W 001°31'0 0.0
2018-Apr-19 01:59N 55°08' W 001°31'0 0.0
2018-Apr-19 01:29N 55°08' W 001°31'0 0.0
2018-Apr-19 00:59N 55°08' W 001°31'0 0.0
2018-Apr-19 00:29N 55°08' W 001°31'0 0.0
2018-Apr-18 23:59N 55°08' W 001°31'0 0.0
2018-Apr-18 23:29N 55°08' W 001°31'0 0.0
2018-Apr-18 22:59N 55°08' W 001°31'0 0.0
2018-Apr-18 22:29N 55°08' W 001°31'0 0.0
2018-Apr-18 21:59N 55°08' W 001°31'0 0.0
2018-Apr-18 21:29N 55°08' W 001°31'0 0.0
2018-Apr-18 20:59N 55°08' W 001°31'0 0.0
2018-Apr-18 20:29N 55°08' W 001°31'0 0.0
2018-Apr-18 19:59N 55°08' W 001°31'0 0.0
2018-Apr-18 19:29N 55°08' W 001°31'0 0.0
2018-Apr-18 18:59N 55°08' W 001°31'0 0.0
2018-Apr-18 18:29N 55°08' W 001°31'0 0.0
2018-Apr-18 17:59N 55°08' W 001°31'0 0.0
2018-Apr-18 17:29N 55°08' W 001°31'0 0.0
2018-Apr-18 16:59N 55°08' W 001°31'0 0.0
2018-Apr-18 16:29N 55°08' W 001°31'0 0.0
2018-Apr-18 15:59N 55°08' W 001°31'0 0.0
2018-Apr-18 15:29N 55°08' W 001°31'0 0.0
2018-Apr-18 14:56N 55°08' W 001°31'0 0.0
2018-Apr-18 14:29N 55°08' W 001°31'0 0.0
2018-Apr-18 13:59N 55°08' W 001°31'0 0.0
2018-Apr-18 13:29N 55°08' W 001°31'0 0.0
2018-Apr-18 12:59N 55°08' W 001°31'0 0.0
2018-Apr-18 12:29N 55°08' W 001°31'0 0.0
2018-Apr-18 11:59N 55°08' W 001°31'0 0.0
2018-Apr-18 11:26N 55°08' W 001°31'0 0.0
2018-Apr-18 10:59N 55°08' W 001°31'0 0.0
2018-Apr-18 10:29N 55°08' W 001°31'0 0.0
2018-Apr-18 09:59N 55°08' W 001°31'0 0.0
2018-Apr-18 09:29N 55°08' W 001°31'0 0.0
2018-Apr-18 08:56N 55°08' W 001°31'0 0.0
2018-Apr-18 08:29N 55°08' W 001°31'0 0.0
2018-Apr-18 07:59N 55°08' W 001°31'0 0.0
2018-Apr-18 07:29N 55°08' W 001°31'0 0.0
2018-Apr-18 06:59N 55°08' W 001°31'0 0.0
2018-Apr-18 06:29N 55°08' W 001°31'0 0.0
2018-Apr-18 05:59N 55°08' W 001°31'0 0.0
2018-Apr-18 05:29N 55°08' W 001°31'0 0.0
2018-Apr-18 04:59N 55°08' W 001°31'0 0.0
2018-Apr-18 04:29N 55°08' W 001°31'0 0.0
2018-Apr-18 03:59N 55°08' W 001°31'0 0.0
2018-Apr-18 03:29N 55°08' W 001°31'0 0.0
2018-Apr-18 02:59N 55°08' W 001°31'0 0.0
2018-Apr-18 02:29N 55°08' W 001°31'0 0.0
2018-Apr-18 01:59N 55°08' W 001°31'0 0.0
2018-Apr-18 01:29N 55°08' W 001°31'0 0.0
2018-Apr-18 00:59N 55°08' W 001°31'0 0.0
2018-Apr-18 00:29N 55°08' W 001°31'0 0.0
2018-Apr-17 23:59N 55°08' W 001°31'0 0.0
2018-Apr-17 23:29N 55°08' W 001°31'0 0.0
2018-Apr-17 22:59N 55°08' W 001°31'0 0.0
2018-Apr-17 22:29N 55°08' W 001°31'0 0.0
2018-Apr-17 21:59N 55°08' W 001°31'0 0.0
2018-Apr-17 21:29N 55°08' W 001°31'0 0.0
2018-Apr-17 20:59N 55°08' W 001°31'0 0.0
2018-Apr-17 20:29N 55°08' W 001°31'0 0.0
2018-Apr-17 19:59N 55°08' W 001°31'0 0.0
2018-Apr-17 19:29N 55°08' W 001°31'0 0.0
2018-Apr-17 18:59N 55°08' W 001°31'0 0.0
2018-Apr-17 18:26N 55°08' W 001°31'0 0.0
2018-Apr-17 17:59N 55°08' W 001°31'0 0.0
2018-Apr-17 17:29N 55°08' W 001°31'0 0.0
2018-Apr-17 16:59N 55°08' W 001°31'0 0.0
2018-Apr-17 16:29N 55°08' W 001°31'0 0.0
2018-Apr-17 15:59N 55°08' W 001°31'0 0.0
2018-Apr-17 15:29N 55°08' W 001°31'0 0.0
2018-Apr-17 14:59N 55°08' W 001°31'0 0.0
2018-Apr-17 14:29N 55°08' W 001°31'0 0.0
2018-Apr-17 13:59N 55°08' W 001°31'0 0.0
2018-Apr-17 13:29N 55°08' W 001°31'0 0.0
2018-Apr-17 12:59N 55°08' W 001°31'0 0.0
2018-Apr-17 12:29N 55°08' W 001°31'0 0.0
2018-Apr-17 11:59N 55°08' W 001°31'0 0.0
2018-Apr-17 11:29N 55°08' W 001°31'0 0.0
2018-Apr-17 10:59N 55°08' W 001°31'0 0.0
2018-Apr-17 10:29N 55°08' W 001°31'0 0.0
2018-Apr-17 09:59N 55°08' W 001°31'0 0.0
2018-Apr-17 09:29N 55°08' W 001°31'0 0.0
2018-Apr-17 08:59N 55°08' W 001°31'0 0.0
2018-Apr-17 08:29N 55°08' W 001°31'0 0.0
2018-Apr-17 07:59N 55°08' W 001°31'0 0.0
2018-Apr-17 07:29N 55°08' W 001°31'0 0.0
2018-Apr-17 06:59N 55°08' W 001°31'0 0.0
2018-Apr-17 06:29N 55°08' W 001°31'0 0.0
2018-Apr-17 05:59N 55°08' W 001°31'0 0.0
2018-Apr-17 05:29N 55°08' W 001°31'0 0.0
2018-Apr-17 04:59N 55°08' W 001°31'0 0.0
2018-Apr-17 04:29N 55°08' W 001°31'0 0.0
2018-Apr-17 03:59N 55°08' W 001°31'0 0.0
2018-Apr-17 03:29N 55°08' W 001°31'0 0.0
2018-Apr-17 02:59N 55°08' W 001°31'0 0.0
2018-Apr-17 02:29N 55°08' W 001°31'0 0.0
2018-Apr-17 01:59N 55°08' W 001°31'0 0.0
2018-Apr-17 01:29N 55°08' W 001°31'0 0.0
2018-Apr-17 00:59N 55°08' W 001°31'0 0.0
2018-Apr-17 00:29N 55°08' W 001°31'0 0.0
2018-Apr-16 23:59N 55°08' W 001°31'0 0.0
2018-Apr-16 23:29N 55°08' W 001°31'0 0.0
2018-Apr-16 22:59N 55°08' W 001°31'0 0.0
2018-Apr-16 22:29N 55°08' W 001°31'0 0.0
2018-Apr-16 21:59N 55°08' W 001°31'0 0.0
2018-Apr-16 21:29N 55°08' W 001°31'0 0.0
2018-Apr-16 20:59N 55°08' W 001°31'0 0.0
2018-Apr-16 20:29N 55°08' W 001°31'0 0.0
2018-Apr-16 19:59N 55°08' W 001°31'0 0.0
2018-Apr-16 19:29N 55°08' W 001°31'0 0.0
2018-Apr-16 18:59N 55°08' W 001°31'0 0.0
2018-Apr-16 18:29N 55°08' W 001°31'0 0.0
2018-Apr-16 17:59N 55°08' W 001°31'0 0.0
2018-Apr-16 17:29N 55°08' W 001°31'0 0.0
2018-Apr-16 16:59N 55°08' W 001°31'0 0.0
2018-Apr-16 16:29N 55°08' W 001°31'0 0.0
2018-Apr-16 15:59N 55°08' W 001°31'0 0.0
2018-Apr-16 15:29N 55°08' W 001°31'0 0.0
2018-Apr-16 14:59N 55°08' W 001°31'0 0.0
2018-Apr-16 14:29N 55°08' W 001°31'0 0.0
2018-Apr-16 13:59N 55°08' W 001°31'0 0.0
2018-Apr-16 13:29N 55°08' W 001°31'0 0.0
2018-Apr-16 12:59N 55°08' W 001°31'0 0.0
2018-Apr-16 12:29N 55°08' W 001°31'0 0.0
2018-Apr-16 11:59N 55°08' W 001°31'0 0.0
2018-Apr-16 11:29N 55°08' W 001°31'0 0.0
2018-Apr-16 10:59N 55°08' W 001°31'0 0.0
2018-Apr-16 10:29N 55°08' W 001°31'0 0.0
2018-Apr-16 09:59N 55°08' W 001°31'0 0.0
2018-Apr-16 09:29N 55°08' W 001°31'0 0.0
2018-Apr-16 08:59N 55°08' W 001°31'0 0.0
2018-Apr-16 08:29N 55°08' W 001°31'0 0.0
2018-Apr-16 07:59N 55°08' W 001°31'0 0.0
2018-Apr-16 07:29N 55°08' W 001°31'0 0.0
2018-Apr-16 06:59N 55°08' W 001°31'0 0.0
2018-Apr-16 06:29N 55°08' W 001°31'0 0.0
2018-Apr-16 05:59N 55°08' W 001°31'0 0.0
2018-Apr-16 05:29N 55°08' W 001°31'0 0.0
2018-Apr-16 04:59N 55°08' W 001°31'0 0.0
2018-Apr-16 04:29N 55°08' W 001°31'0 0.0
2018-Apr-16 03:59N 55°08' W 001°31'0 0.0
2018-Apr-16 03:29N 55°08' W 001°31'0 0.0
2018-Apr-16 02:59N 55°08' W 001°31'0 0.0
2018-Apr-16 02:29N 55°08' W 001°31'0 0.0
2018-Apr-16 01:56N 55°08' W 001°31'0 0.0
2018-Apr-16 01:29N 55°08' W 001°31'0 0.0
2018-Apr-16 00:59N 55°08' W 001°31'0 0.0
2018-Apr-16 00:29N 55°08' W 001°31'0 0.0
2018-Apr-15 23:59N 55°08' W 001°31'0 0.0
2018-Apr-15 23:29N 55°08' W 001°31'0 0.0
2018-Apr-15 22:59N 55°08' W 001°31'0 0.0
2018-Apr-15 22:29N 55°08' W 001°31'0 0.0
2018-Apr-15 21:59N 55°08' W 001°31'0 0.0
2018-Apr-15 21:29N 55°08' W 001°31'0 0.0
2018-Apr-15 20:59N 55°08' W 001°31'0 0.0
2018-Apr-15 20:29N 55°08' W 001°31'0 0.0
2018-Apr-15 19:59N 55°08' W 001°31'0 0.0
2018-Apr-15 19:29N 55°08' W 001°31'0 0.0
2018-Apr-15 18:59N 55°08' W 001°31'0 0.0
2018-Apr-15 18:29N 55°08' W 001°31'0 0.0
2018-Apr-15 17:59N 55°08' W 001°31'0 0.0
2018-Apr-15 17:29N 55°08' W 001°31'0 0.0
2018-Apr-15 16:56N 55°08' W 001°31'0 0.0
2018-Apr-15 16:29N 55°08' W 001°31'0 0.0
2018-Apr-15 15:59N 55°08' W 001°31'0 0.0
2018-Apr-15 15:29N 55°08' W 001°31'0 0.0
2018-Apr-15 14:59N 55°08' W 001°31'0 0.0
2018-Apr-15 14:29N 55°08' W 001°31'0 0.0
2018-Apr-15 13:59N 55°08' W 001°31'0 0.0
2018-Apr-15 13:29N 55°08' W 001°31'0 0.0
2018-Apr-15 12:59N 55°08' W 001°31'0 0.0
2018-Apr-15 12:29N 55°08' W 001°31'0 0.0
2018-Apr-15 11:59N 55°08' W 001°31'0 0.0
2018-Apr-15 11:29N 55°08' W 001°31'0 0.0
2018-Apr-15 10:59N 55°08' W 001°31'0 0.0
2018-Apr-15 10:29N 55°08' W 001°31'0 0.0
2018-Apr-15 09:59N 55°08' W 001°31'0 0.0
2018-Apr-15 09:29N 55°08' W 001°31'0 0.0
2018-Apr-15 08:59N 55°08' W 001°31'0 0.0
2018-Apr-15 08:29N 55°08' W 001°31'0 0.0
2018-Apr-15 07:59N 55°08' W 001°31'0 0.0
2018-Apr-15 07:29N 55°08' W 001°31'0 0.0
2018-Apr-15 06:59N 55°08' W 001°31'0 0.0
2018-Apr-15 06:29N 55°08' W 001°31'0 0.0
2018-Apr-15 05:59N 55°08' W 001°31'0 0.0
2018-Apr-15 05:29N 55°08' W 001°31'0 0.0
2018-Apr-15 04:59N 55°08' W 001°31'0 0.0
2018-Apr-15 04:29N 55°08' W 001°31'0 0.0
2018-Apr-15 03:59N 55°08' W 001°31'0 0.0
2018-Apr-15 03:29N 55°08' W 001°31'0 0.0
2018-Apr-15 02:59N 55°08' W 001°31'0 0.0
2018-Apr-15 02:29N 55°08' W 001°31'0 0.0
2018-Apr-15 01:59N 55°08' W 001°31'0 0.0
2018-Apr-15 01:29N 55°08' W 001°31'0 0.0
2018-Apr-15 00:59N 55°08' W 001°31'0 0.0
2018-Apr-15 00:26N 55°08' W 001°31'0 0.0
2018-Apr-14 23:56N 55°08' W 001°31'0 0.0
2018-Apr-14 23:29N 55°08' W 001°31'0 0.0
2018-Apr-14 22:59N 55°08' W 001°31'0 0.0
2018-Apr-14 22:29N 55°08' W 001°31'0 0.0
2018-Apr-14 21:59N 55°08' W 001°31'0 0.0
2018-Apr-14 21:29N 55°08' W 001°31'0 0.0
2018-Apr-14 20:59N 55°08' W 001°31'0 0.0
2018-Apr-14 20:29N 55°08' W 001°31'0 0.0
2018-Apr-14 19:59N 55°08' W 001°31'0 0.0
2018-Apr-14 19:29N 55°08' W 001°31'0 0.0
2018-Apr-14 18:59N 55°08' W 001°31'0 0.0
2018-Apr-14 18:29N 55°08' W 001°31'0 0.0
2018-Apr-14 17:59N 55°08' W 001°31'0 0.0
2018-Apr-14 17:29N 55°08' W 001°31'0 0.0
2018-Apr-14 16:59N 55°08' W 001°31'0 0.0
2018-Apr-14 16:29N 55°08' W 001°31'0 0.0
2018-Apr-14 15:59N 55°08' W 001°31'0 0.0
2018-Apr-14 15:29N 55°08' W 001°31'0 0.0
2018-Apr-14 14:59N 55°08' W 001°31'0 0.0
2018-Apr-14 14:29N 55°08' W 001°31'0 0.0
2018-Apr-14 13:59N 55°08' W 001°31'0 0.0
2018-Apr-14 13:29N 55°08' W 001°31'0 0.0
2018-Apr-14 12:59N 55°08' W 001°31'0 0.0
2018-Apr-14 12:29N 55°08' W 001°31'0 0.0
2018-Apr-14 11:59N 55°08' W 001°31'0 0.0
2018-Apr-14 11:29N 55°08' W 001°31'0 0.0
2018-Apr-14 10:59N 55°08' W 001°31'0 0.0
2018-Apr-14 10:29N 55°08' W 001°31'0 0.0
2018-Apr-14 09:59N 55°08' W 001°31'0 0.0
2018-Apr-14 09:29N 55°08' W 001°31'0 0.0
2018-Apr-14 08:59N 55°08' W 001°31'0 0.0
2018-Apr-14 08:29N 55°08' W 001°31'0 0.0
2018-Apr-14 07:59N 55°08' W 001°31'0 0.0
2018-Apr-14 07:29N 55°08' W 001°31'0 0.0
2018-Apr-14 06:59N 55°08' W 001°31'0 0.0
2018-Apr-14 06:29N 55°08' W 001°31'0 0.0
2018-Apr-14 05:59N 55°08' W 001°31'0 0.0
2018-Apr-14 05:29N 55°08' W 001°31'0 0.0
2018-Apr-14 04:59N 55°08' W 001°31'  

Dump ship's entire track history